createdAt,value
2023-10-17T00:04:34.507Z,2.53
2023-10-17T00:09:38.798Z,2.57
2023-10-17T00:14:47.569Z,2.60
2023-10-17T00:19:53.636Z,2.70
2023-10-17T00:25:04.886Z,2.70
2023-10-17T00:30:17.798Z,2.73
2023-10-17T00:35:21.162Z,2.70
2023-10-17T00:40:45.373Z,2.90
2023-10-17T00:45:49.898Z,2.60
2023-10-17T00:50:58.686Z,2.40
2023-10-17T00:56:02.080Z,2.90
2023-10-17T01:01:16.395Z,2.67
2023-10-17T01:06:36.481Z,2.60
2023-10-17T01:11:39.874Z,2.50
2023-10-17T01:16:46.828Z,2.70
2023-10-17T01:21:50.332Z,2.90
2023-10-17T01:26:55.092Z,2.20
2023-10-17T01:31:58.814Z,2.73
2023-10-17T01:37:02.002Z,3.03
2023-10-17T01:42:06.762Z,2.90
2023-10-17T01:47:09.902Z,2.87
2023-10-17T01:52:13.365Z,2.60
2023-10-17T01:57:18.536Z,2.83
2023-10-17T02:02:24.945Z,2.37
2023-10-17T02:07:28.085Z,2.50
2023-10-17T02:12:33.770Z,2.40
2023-10-17T02:17:37.530Z,2.30
2023-10-17T02:22:48.014Z,2.40
2023-10-17T02:27:52.509Z,2.50
2023-10-17T02:32:55.912Z,2.33
2023-10-17T02:37:59.306Z,1.80
2023-10-17T02:43:03.960Z,2.10
2023-10-17T02:48:24.732Z,1.90
2023-10-17T02:53:33.208Z,1.90
2023-10-17T02:58:37.716Z,1.80
2023-10-17T03:03:41.359Z,1.87
2023-10-17T03:08:50.800Z,1.80
2023-10-17T03:13:57.409Z,1.83
2023-10-17T03:19:00.571Z,2.30
2023-10-17T03:24:11.487Z,2.10
2023-10-17T03:29:20.683Z,2.00
2023-10-17T03:34:35.392Z,2.30
2023-10-17T03:39:52.326Z,2.03
2023-10-17T03:44:56.859Z,2.13
2023-10-17T03:50:07.788Z,2.10
2023-10-17T03:55:12.038Z,2.27
2023-10-17T04:00:26.704Z,2.00
2023-10-17T04:05:30.096Z,2.13
2023-10-17T04:10:49.767Z,2.37
2023-10-17T04:15:54.713Z,2.33
2023-10-17T04:21:14.271Z,2.87
2023-10-17T04:26:20.630Z,2.40
2023-10-17T04:31:29.992Z,2.07
2023-10-17T04:36:37.277Z,2.30
2023-10-17T04:42:05.986Z,1.93
2023-10-17T04:47:33.353Z,1.87
2023-10-17T04:52:42.800Z,2.50
2023-10-17T04:57:59.511Z,2.00
2023-10-17T05:03:15.194Z,2.10
2023-10-17T05:08:32.972Z,2.33
2023-10-17T05:13:53.971Z,2.30
2023-10-17T05:19:24.184Z,3.10
2023-10-17T05:24:44.519Z,3.03
2023-10-17T05:30:06.068Z,2.63
2023-10-17T05:35:29.039Z,2.77
2023-10-17T05:40:49.816Z,2.70
2023-10-17T05:46:14.288Z,2.97
2023-10-17T05:51:36.293Z,3.03
2023-10-17T05:56:57.357Z,3.00
2023-10-17T06:02:29.641Z,3.23
2023-10-17T06:07:51.401Z,2.60
2023-10-17T06:13:12.141Z,2.60
2023-10-17T06:18:20.095Z,2.20
2023-10-17T06:23:47.339Z,2.40
2023-10-17T06:28:50.488Z,2.77
2023-10-17T06:33:56.623Z,2.80
2023-10-17T06:39:08.434Z,2.20
2023-10-17T06:44:12.729Z,2.47
2023-10-17T06:49:31.127Z,2.90
2023-10-17T06:54:42.336Z,2.80
2023-10-17T06:59:45.805Z,3.30
2023-10-17T07:04:51.173Z,2.90
2023-10-17T07:10:16.721Z,2.97
2023-10-17T07:15:20.944Z,3.07
2023-10-17T07:20:52.056Z,2.77
2023-10-17T07:25:58.233Z,2.90
2023-10-17T07:31:02.351Z,2.77
2023-10-17T07:36:07.304Z,3.03
2023-10-17T07:41:15.345Z,3.13
2023-10-17T07:46:19.791Z,2.90
2023-10-17T07:51:24.223Z,3.10
2023-10-17T07:56:29.032Z,2.87
2023-10-17T08:01:35.256Z,2.57
2023-10-17T08:06:38.593Z,2.90
2023-10-17T08:11:43.898Z,3.40
2023-10-17T08:16:49.919Z,3.37
2023-10-17T08:22:11.296Z,3.20
2023-10-17T08:27:18.943Z,3.30
2023-10-17T08:32:41.875Z,3.27
2023-10-17T08:37:45.817Z,3.13
2023-10-17T08:42:52.107Z,3.60
2023-10-17T08:48:00.929Z,3.47
2023-10-17T08:53:08.023Z,3.20
2023-10-17T08:58:12.825Z,3.20
2023-10-17T09:03:24.520Z,2.87
2023-10-17T09:08:45.658Z,2.80
2023-10-17T09:14:09.628Z,2.70
2023-10-17T09:19:13.390Z,2.80
2023-10-17T09:24:33.600Z,2.90
2023-10-17T09:29:50.324Z,2.97
2023-10-17T09:34:56.448Z,3.60
2023-10-17T09:40:04.396Z,2.60
2023-10-17T09:45:24.502Z,2.97
2023-10-17T09:50:36.027Z,2.80
2023-10-17T09:55:45.188Z,2.90
2023-10-17T10:00:54.323Z,3.00
2023-10-17T10:06:14.805Z,3.17
2023-10-17T10:11:18.033Z,3.20
2023-10-17T10:16:22.614Z,2.87
2023-10-17T10:22:00.324Z,2.83
2023-10-17T10:27:28.021Z,2.90
2023-10-17T10:32:34.840Z,2.80
2023-10-17T10:37:53.472Z,2.77
2023-10-17T10:42:59.606Z,2.93
2023-10-17T10:48:07.591Z,3.10
2023-10-17T10:53:31.147Z,3.03
2023-10-17T10:58:36.744Z,2.80
2023-10-17T11:03:43.955Z,2.60
2023-10-17T11:08:49.625Z,3.07
2023-10-17T11:13:55.597Z,3.00
2023-10-17T11:19:00.470Z,3.00
2023-10-17T11:24:08.088Z,2.90
2023-10-17T11:29:12.119Z,3.03
2023-10-17T11:34:17.955Z,2.80
2023-10-17T11:39:21.420Z,2.87
2023-10-17T11:44:25.760Z,3.27
2023-10-17T11:49:32.987Z,3.20
2023-10-17T11:54:56.664Z,3.00
2023-10-17T12:00:02.865Z,2.63
2023-10-17T12:05:07.767Z,2.90
2023-10-17T12:10:11.900Z,2.80
2023-10-17T12:15:15.540Z,3.10
2023-10-17T12:20:20.740Z,3.00
2023-10-17T12:25:25.282Z,3.20
2023-10-17T12:30:29.590Z,2.87
2023-10-17T12:35:34.785Z,2.90
2023-10-17T12:40:39.501Z,3.20
2023-10-17T12:45:43.261Z,3.40
2023-10-17T12:50:47.837Z,4.03
2023-10-17T12:55:50.952Z,3.00
2023-10-17T13:00:54.312Z,3.00
2023-10-17T13:05:58.968Z,3.17
2023-10-17T13:11:04.598Z,3.57
2023-10-17T13:16:08.982Z,3.10
2023-10-17T13:21:15.520Z,3.30
2023-10-17T13:26:20.277Z,2.70
2023-10-17T13:31:23.528Z,3.00
2023-10-17T13:36:28.323Z,3.50
2023-10-17T13:41:31.647Z,3.30
2023-10-17T13:46:36.413Z,3.03
2023-10-17T13:51:47.588Z,3.83
2023-10-17T13:56:50.948Z,3.13
2023-10-17T14:01:54.390Z,3.60
2023-10-17T14:06:59.586Z,4.47
2023-10-17T14:12:03.916Z,3.57
2023-10-17T14:17:07.491Z,3.77
2023-10-17T14:22:22.234Z,3.47
2023-10-17T14:27:30.727Z,3.40
2023-10-17T14:32:34.724Z,3.40
2023-10-17T14:37:41.107Z,3.07
2023-10-17T14:42:45.801Z,3.43
2023-10-17T14:47:49.409Z,3.17
2023-10-17T14:52:54.898Z,3.50
2023-10-17T14:57:58.165Z,3.80
2023-10-17T15:03:01.383Z,3.37
2023-10-17T15:08:12.271Z,3.90
2023-10-17T15:13:15.535Z,3.30
2023-10-17T15:18:18.804Z,3.50
2023-10-17T15:23:23.498Z,3.80
2023-10-17T15:28:26.600Z,3.90
2023-10-17T15:33:29.906Z,4.00
2023-10-17T15:38:35.219Z,3.67
2023-10-17T15:43:38.358Z,4.53
2023-10-17T15:48:43.724Z,4.80
2023-10-17T15:53:48.934Z,4.57
2023-10-17T15:58:53.864Z,4.40
2023-10-17T16:03:57.185Z,6.07
2023-10-17T16:09:01.725Z,4.50
2023-10-17T16:14:05.325Z,4.10
2023-10-17T16:19:08.637Z,3.30
2023-10-17T16:24:13.364Z,3.50
2023-10-17T16:29:16.566Z,4.23
2023-10-17T16:34:20.864Z,3.43
2023-10-17T16:39:27.206Z,3.60
2023-10-17T16:44:31.333Z,4.17
2023-10-17T16:49:36.714Z,3.97
2023-10-17T16:54:41.513Z,3.60
2023-10-17T16:59:47.567Z,3.83
2023-10-17T17:04:51.455Z,3.20
2023-10-17T17:09:57.543Z,3.30
2023-10-17T17:15:00.910Z,4.67
2023-10-17T17:20:04.648Z,4.00
2023-10-17T17:25:15.645Z,3.10
2023-10-17T17:30:20.662Z,3.63
2023-10-17T17:35:25.158Z,4.23
2023-10-17T17:40:32.527Z,3.23
2023-10-17T17:45:36.538Z,3.70
2023-10-17T17:50:40.258Z,4.13
2023-10-17T17:55:50.818Z,4.07
2023-10-17T18:00:55.594Z,4.40
2023-10-17T18:05:59.014Z,3.80
2023-10-17T18:11:04.527Z,5.40
2023-10-17T18:16:08.062Z,4.80
2023-10-17T18:21:15.356Z,7.47
2023-10-17T18:26:21.267Z,6.70
2023-10-17T18:31:24.519Z,8.40
2023-10-17T18:36:29.298Z,10.93
2023-10-17T18:41:38.405Z,9.33
2023-10-17T18:46:43.359Z,9.00
2023-10-17T18:51:46.725Z,9.73
2023-10-17T18:56:51.979Z,8.00
2023-10-17T19:01:55.168Z,8.17
2023-10-17T19:07:02.879Z,8.60
2023-10-17T19:12:09.155Z,9.60
2023-10-17T19:17:13.249Z,7.17
2023-10-17T19:22:16.520Z,7.90
2023-10-17T19:27:21.744Z,7.67
2023-10-17T19:32:24.941Z,7.70
2023-10-17T19:37:28.150Z,7.43
2023-10-17T19:42:32.750Z,9.03
2023-10-17T19:47:36.451Z,7.13
2023-10-17T19:52:40.092Z,9.23
2023-10-17T19:57:44.618Z,7.33
2023-10-17T20:02:48.336Z,7.40
2023-10-17T20:07:51.623Z,7.67
2023-10-17T20:12:56.336Z,7.70
2023-10-17T20:17:59.924Z,6.80
2023-10-17T20:23:05.162Z,7.63
2023-10-17T20:28:09.796Z,8.03
2023-10-17T20:33:13.890Z,8.67
2023-10-17T20:38:18.169Z,10.60
2023-10-17T20:43:23.410Z,8.40
2023-10-17T20:48:26.628Z,6.20
2023-10-17T20:53:32.559Z,6.53
2023-10-17T20:58:37.189Z,6.17
2023-10-17T21:03:40.407Z,5.77
2023-10-17T21:08:44.435Z,5.30
2023-10-17T21:13:49.529Z,3.77
2023-10-17T21:18:52.766Z,3.70
2023-10-17T21:23:55.993Z,3.30
2023-10-17T21:29:00.484Z,2.90
2023-10-17T21:34:05.051Z,3.10
2023-10-17T21:39:08.480Z,2.90
2023-10-17T21:44:13.159Z,3.93
2023-10-17T21:49:16.306Z,3.97
2023-10-17T21:54:19.512Z,3.60
2023-10-17T21:59:24.033Z,4.27
2023-10-17T22:04:27.216Z,3.93
2023-10-17T22:09:30.780Z,4.63
2023-10-17T22:14:35.913Z,4.63
2023-10-17T22:19:39.118Z,5.37
2023-10-17T22:24:54.834Z,4.40
2023-10-17T22:30:00.088Z,4.83
2023-10-17T22:35:06.028Z,4.77
2023-10-17T22:40:12.845Z,5.13
2023-10-17T22:45:18.473Z,4.50
2023-10-17T22:50:21.903Z,4.73
2023-10-17T22:55:25.520Z,4.93
2023-10-17T23:00:30.035Z,4.20
2023-10-17T23:05:34.126Z,4.53
2023-10-17T23:10:39.065Z,4.37
2023-10-17T23:15:43.626Z,3.90
2023-10-17T23:20:46.870Z,3.50
2023-10-17T23:25:50.094Z,4.23
2023-10-17T23:30:54.683Z,4.13
2023-10-17T23:35:57.982Z,4.43
2023-10-17T23:41:01.282Z,4.00
2023-10-17T23:46:05.791Z,3.80
2023-10-17T23:51:09.896Z,3.40
2023-10-17T23:56:14.846Z,3.37
